createdAt,value
2019-05-05T00:01:14.712Z,7.10
2019-05-05T00:03:52.184Z,7.00
2019-05-05T00:06:19.749Z,7.00
2019-05-05T00:08:47.296Z,7.10
2019-05-05T00:11:44.490Z,7.10
2019-05-05T00:14:24.458Z,7.10
2019-05-05T00:17:00.458Z,7.00
2019-05-05T00:19:32.541Z,6.90
2019-05-05T00:21:57.434Z,6.90
2019-05-05T00:24:25.050Z,6.90
2019-05-05T00:26:52.581Z,7.00
2019-05-05T00:29:20.162Z,7.00
2019-05-05T00:31:48.845Z,7.00
2019-05-05T00:34:35.386Z,6.90
2019-05-05T00:37:04.682Z,6.90
2019-05-05T00:39:34.515Z,7.00
2019-05-05T00:42:02.261Z,7.00
2019-05-05T00:44:30.373Z,7.00
2019-05-05T00:47:15.853Z,7.10
2019-05-05T00:49:49.087Z,7.10
2019-05-05T00:52:14.669Z,7.00
2019-05-05T00:54:42.262Z,6.70
2019-05-05T00:57:15.552Z,6.50
2019-05-05T00:59:45.083Z,6.60
2019-05-05T01:02:28.195Z,6.60
2019-05-05T01:05:11.425Z,6.60
2019-05-05T01:07:44.289Z,6.60
2019-05-05T01:10:14.311Z,6.60
2019-05-05T01:12:41.884Z,6.70
2019-05-05T01:15:09.701Z,6.70
2019-05-05T01:17:37.273Z,6.70
2019-05-05T01:20:06.968Z,6.60
2019-05-05T01:22:34.567Z,6.60
2019-05-05T01:25:02.223Z,6.70
2019-05-05T01:27:29.792Z,6.60
2019-05-05T01:29:57.426Z,6.50
2019-05-05T01:32:29.611Z,6.50
2019-05-05T01:34:57.212Z,6.40
2019-05-05T01:37:31.406Z,6.40
2019-05-05T01:40:08.331Z,6.40
2019-05-05T01:42:35.899Z,6.40
2019-05-05T01:45:04.562Z,6.40
2019-05-05T01:47:32.237Z,6.50
2019-05-05T01:49:59.805Z,6.50
2019-05-05T01:52:27.409Z,6.50
2019-05-05T01:54:54.983Z,6.20
2019-05-05T01:57:22.604Z,6.20
2019-05-05T01:59:50.196Z,6.20
2019-05-05T02:02:17.825Z,6.10
2019-05-05T02:04:45.396Z,6.20
2019-05-05T02:07:14.548Z,6.30
2019-05-05T02:09:44.191Z,6.00
2019-05-05T02:12:11.711Z,6.10
2019-05-05T02:14:39.256Z,6.00
2019-05-05T02:17:06.893Z,5.90
2019-05-05T02:19:35.042Z,5.60
2019-05-05T02:22:05.219Z,5.40
2019-05-05T02:24:32.903Z,5.20
2019-05-05T02:27:00.402Z,5.20
2019-05-05T02:29:39.394Z,5.40
2019-05-05T02:32:36.245Z,5.40
2019-05-05T02:35:07.533Z,5.30
2019-05-05T02:37:35.803Z,5.60
2019-05-05T02:40:07.599Z,5.80
2019-05-05T02:42:35.678Z,5.90
2019-05-05T02:45:06.529Z,6.10
2019-05-05T02:47:55.978Z,6.20
2019-05-05T02:50:26.571Z,6.20
2019-05-05T02:52:57.027Z,6.30
2019-05-05T02:55:24.713Z,6.40
2019-05-05T02:57:54.308Z,6.30
2019-05-05T03:00:39.785Z,6.30
2019-05-05T03:03:08.345Z,6.30
2019-05-05T03:05:36.398Z,6.30
2019-05-05T03:08:04.808Z,6.40
2019-05-05T03:10:34.023Z,6.40
2019-05-05T03:13:04.790Z,6.50
2019-05-05T03:15:54.979Z,6.40
2019-05-05T03:18:24.678Z,6.30
2019-05-05T03:21:02.362Z,6.40
2019-05-05T03:23:24.036Z,6.40
2019-05-05T03:25:54.436Z,6.40
2019-05-05T03:28:24.054Z,6.50
2019-05-05T03:30:51.678Z,6.60
2019-05-05T03:33:19.753Z,6.60
2019-05-05T03:35:47.293Z,6.60
2019-05-05T03:38:15.699Z,6.60
2019-05-05T03:40:46.133Z,6.60
2019-05-05T03:43:23.589Z,6.60
2019-05-05T03:45:54.096Z,6.50
2019-05-05T03:48:21.672Z,6.40
2019-05-05T03:50:49.404Z,6.50
2019-05-05T03:53:16.982Z,6.50
2019-05-05T03:55:44.805Z,6.60
2019-05-05T03:58:14.522Z,6.60
2019-05-05T04:01:26.485Z,6.50
2019-05-05T04:03:55.893Z,6.50
2019-05-05T04:06:37.128Z,6.30
2019-05-05T04:09:05.792Z,6.10
2019-05-05T04:11:33.901Z,6.10
2019-05-05T04:14:03.564Z,6.20
2019-05-05T04:16:37.366Z,6.30
2019-05-05T04:19:06.565Z,6.30
2019-05-05T04:21:36.702Z,6.40
2019-05-05T04:24:04.109Z,6.40
2019-05-05T04:26:33.552Z,6.40
2019-05-05T04:29:03.259Z,6.50
2019-05-05T04:31:30.761Z,6.50
2019-05-05T04:33:58.349Z,6.40
2019-05-05T04:36:25.990Z,6.40
2019-05-05T04:38:54.547Z,6.40
2019-05-05T04:41:24.427Z,6.30
2019-05-05T04:43:52.015Z,6.20
2019-05-05T04:46:19.657Z,6.20
2019-05-05T04:49:06.725Z,6.30
2019-05-05T04:51:47.734Z,6.30
2019-05-05T04:54:14.856Z,6.30
2019-05-05T04:56:44.346Z,6.30
2019-05-05T04:59:11.928Z,6.30
2019-05-05T05:01:40.352Z,6.00
2019-05-05T05:04:27.420Z,5.90
2019-05-05T05:06:56.206Z,6.10
2019-05-05T05:09:24.193Z,6.00
2019-05-05T05:11:51.736Z,6.10
2019-05-05T05:14:19.307Z,6.10
2019-05-05T05:16:47.629Z,6.20
2019-05-05T05:19:15.252Z,6.20
2019-05-05T05:21:43.632Z,6.30
2019-05-05T05:24:11.403Z,6.30
2019-05-05T05:26:39.214Z,6.40
2019-05-05T05:29:06.885Z,6.40
2019-05-05T05:31:34.631Z,6.40
2019-05-05T05:34:04.256Z,6.40
2019-05-05T05:36:33.723Z,6.40
2019-05-05T05:39:07.405Z,6.40
2019-05-05T05:41:45.448Z,6.40
2019-05-05T05:44:30.590Z,6.40
2019-05-05T05:47:19.908Z,6.50
2019-05-05T05:50:14.280Z,6.60
2019-05-05T05:52:43.618Z,6.50
2019-05-05T05:55:11.411Z,6.50
2019-05-05T05:57:39.330Z,6.50
2019-05-05T06:00:07.129Z,6.40
2019-05-05T06:02:35.813Z,6.40
2019-05-05T06:05:14.589Z,6.40
2019-05-05T06:07:44.258Z,6.40
2019-05-05T06:10:23.719Z,6.30
2019-05-05T06:12:46.629Z,6.40
2019-05-05T06:15:14.885Z,6.40
2019-05-05T06:17:43.509Z,6.30
2019-05-05T06:20:11.957Z,6.20
2019-05-05T06:29:48.636Z,6.40
2019-05-05T06:32:16.447Z,6.20
2019-05-05T06:34:44.486Z,6.10
2019-05-05T06:37:14.331Z,6.50
2019-05-05T06:39:44.021Z,6.80
2019-05-05T06:42:40.481Z,6.80
2019-05-05T06:45:17.812Z,6.80
2019-05-05T06:47:45.545Z,6.70
2019-05-05T06:50:13.978Z,6.70
2019-05-05T06:52:45.139Z,6.60
2019-05-05T06:55:11.641Z,6.60
2019-05-05T06:57:39.442Z,6.30
2019-05-05T07:00:07.450Z,6.10
2019-05-05T07:02:35.343Z,6.10
2019-05-05T07:05:05.873Z,6.20
2019-05-05T07:07:34.247Z,6.30
2019-05-05T07:10:03.769Z,5.90
2019-05-05T07:12:31.747Z,5.50
2019-05-05T07:14:59.634Z,5.30
2019-05-05T07:17:27.498Z,5.40
2019-05-05T07:19:55.242Z,5.50
2019-05-05T07:22:24.410Z,5.70
2019-05-05T07:24:54.458Z,5.90
2019-05-05T07:27:49.977Z,5.70
2019-05-05T07:30:18.250Z,5.70
2019-05-05T07:32:57.109Z,5.90
2019-05-05T07:42:35.774Z,6.40
2019-05-05T07:46:17.336Z,6.40
2019-05-05T07:48:04.628Z,6.60
2019-05-05T07:50:32.667Z,6.70
2019-05-05T07:53:14.572Z,6.80
2019-05-05T07:55:35.155Z,6.90
2019-05-05T07:58:07.788Z,6.90
2019-05-05T08:00:40.826Z,6.80
2019-05-05T08:03:39.014Z,7.00
2019-05-05T08:09:48.218Z,7.20
2019-05-05T08:12:19.527Z,7.50
2019-05-05T08:22:03.841Z,7.70
2019-05-05T08:28:27.704Z,7.70
2019-05-05T08:31:03.971Z,7.80
2019-05-05T08:33:33.599Z,7.90
2019-05-05T08:36:01.499Z,7.90
2019-05-05T08:38:30.320Z,8.00
2019-05-05T08:41:00.232Z,7.90
2019-05-05T08:43:28.304Z,8.00
2019-05-05T08:45:56.368Z,8.00
2019-05-05T08:48:27.272Z,8.10
2019-05-05T08:50:54.966Z,8.20
2019-05-05T08:53:24.288Z,8.30
2019-05-05T08:55:52.130Z,8.50
2019-05-05T08:58:19.921Z,8.50
2019-05-05T09:00:47.753Z,8.70
2019-05-05T09:03:15.515Z,8.70
2019-05-05T09:05:48.858Z,8.70
2019-05-05T09:08:16.625Z,8.70
2019-05-05T09:10:44.896Z,8.60
2019-05-05T09:13:14.326Z,8.70
2019-05-05T09:15:44.268Z,8.80
2019-05-05T09:18:14.041Z,9.00
2019-05-05T09:20:45.672Z,8.80
2019-05-05T09:23:14.732Z,8.80
2019-05-05T09:26:05.518Z,8.60
2019-05-05T09:28:56.542Z,8.20
2019-05-05T09:31:24.574Z,8.10
2019-05-05T09:33:53.617Z,8.00
2019-05-05T09:36:24.313Z,8.00
2019-05-05T09:38:54.075Z,8.00
2019-05-05T09:41:23.541Z,8.00
2019-05-05T09:43:53.922Z,8.40
2019-05-05T09:46:23.539Z,8.50
2019-05-05T09:48:54.171Z,8.20
2019-05-05T09:51:24.167Z,8.50
2019-05-05T09:53:54.180Z,8.70
2019-05-05T09:56:23.636Z,8.90
2019-05-05T09:58:54.539Z,9.30
2019-05-05T10:01:25.670Z,9.30
2019-05-05T10:03:58.476Z,9.40
2019-05-05T10:06:27.100Z,9.00
2019-05-05T10:08:55.278Z,9.00
2019-05-05T10:11:23.842Z,9.00
2019-05-05T10:13:51.745Z,8.90
2019-05-05T10:16:19.497Z,8.90
2019-05-05T10:18:47.418Z,8.80
2019-05-05T10:21:17.539Z,8.60
2019-05-05T10:23:46.763Z,8.30
2019-05-05T10:26:14.909Z,8.40
2019-05-05T10:28:44.467Z,8.60
2019-05-05T10:31:13.825Z,8.80
2019-05-05T10:33:46.611Z,8.60
2019-05-05T10:36:14.681Z,8.40
2019-05-05T10:38:45.438Z,8.50
2019-05-05T10:41:13.591Z,8.50
2019-05-05T10:43:43.744Z,8.50
2019-05-05T10:46:11.785Z,8.60
2019-05-05T10:48:39.438Z,8.70
2019-05-05T10:51:07.125Z,8.40
2019-05-05T10:53:36.208Z,8.40
2019-05-05T10:56:04.531Z,8.40
2019-05-05T10:58:33.617Z,8.50
2019-05-05T11:01:04.252Z,8.70
2019-05-05T11:03:36.389Z,8.80
2019-05-05T11:06:05.011Z,8.90
2019-05-05T11:08:36.467Z,8.80
2019-05-05T11:11:09.200Z,8.60
2019-05-05T11:13:38.430Z,8.50
2019-05-05T11:16:09.028Z,8.60
2019-05-05T11:18:37.082Z,8.50
2019-05-05T11:21:04.845Z,8.70
2019-05-05T11:23:34.592Z,8.70
2019-05-05T11:26:03.189Z,8.60
2019-05-05T11:28:31.206Z,8.80
2019-05-05T11:31:01.197Z,8.70
2019-05-05T11:33:38.114Z,8.70
2019-05-05T11:36:14.893Z,8.80
2019-05-05T11:38:44.597Z,9.00
2019-05-05T11:41:17.051Z,9.10
2019-05-05T11:43:56.945Z,9.10
2019-05-05T11:46:24.861Z,9.20
2019-05-05T11:48:54.365Z,9.30
2019-05-05T11:51:24.809Z,9.50
2019-05-05T11:53:55.099Z,9.50
2019-05-05T11:56:22.798Z,9.50
2019-05-05T11:58:54.639Z,9.70
2019-05-05T12:01:23.768Z,9.90
2019-05-05T12:03:53.582Z,9.80
2019-05-05T12:06:24.598Z,9.70
2019-05-05T12:08:51.383Z,10.20
2019-05-05T12:11:23.495Z,10.30
2019-05-05T12:13:51.511Z,10.40
2019-05-05T12:16:40.972Z,10.50
2019-05-05T12:19:13.565Z,10.60
2019-05-05T12:21:41.401Z,10.50
2019-05-05T12:24:15.799Z,10.20
2019-05-05T12:27:03.730Z,10.00
2019-05-05T12:29:54.669Z,9.80
2019-05-05T12:32:31.431Z,9.70
2019-05-05T12:34:59.747Z,9.40
2019-05-05T12:37:28.196Z,9.40
2019-05-05T12:39:56.321Z,9.10
2019-05-05T12:42:24.479Z,9.10
2019-05-05T12:45:04.459Z,9.40
2019-05-05T12:47:50.887Z,9.30
2019-05-05T12:50:19.269Z,9.60
2019-05-05T12:52:47.159Z,9.90
2019-05-05T12:55:15.006Z,10.00
2019-05-05T12:57:43.614Z,10.00
2019-05-05T13:00:14.511Z,10.10
2019-05-05T13:02:44.099Z,10.20
2019-05-05T13:05:11.728Z,10.30
2019-05-05T13:07:39.513Z,10.50
2019-05-05T13:10:09.063Z,10.40
2019-05-05T13:12:36.795Z,10.50
2019-05-05T13:15:33.979Z,10.60
2019-05-05T13:18:55.629Z,10.70
2019-05-05T13:21:47.750Z,10.70
2019-05-05T13:24:41.076Z,10.70
2019-05-05T13:27:36.375Z,10.50
2019-05-05T13:30:18.270Z,10.50
2019-05-05T13:33:03.865Z,10.60
2019-05-05T13:35:43.641Z,10.60
2019-05-05T13:38:28.813Z,10.50
2019-05-05T13:41:16.681Z,10.50
2019-05-05T13:43:46.825Z,10.40
2019-05-05T13:46:24.832Z,10.10
2019-05-05T13:48:53.932Z,10.10
2019-05-05T13:51:25.846Z,10.20
2019-05-05T13:53:55.669Z,10.30
2019-05-05T13:56:25.808Z,10.30
2019-05-05T13:59:00.422Z,10.30
2019-05-05T14:01:28.542Z,10.20
2019-05-05T14:03:57.809Z,10.30
2019-05-05T14:06:25.906Z,10.40
2019-05-05T14:08:56.330Z,10.20
2019-05-05T14:11:24.810Z,10.10
2019-05-05T14:13:52.832Z,10.20
2019-05-05T14:16:20.686Z,10.10
2019-05-05T14:18:48.382Z,10.20
2019-05-05T14:21:16.184Z,10.00
2019-05-05T14:23:58.483Z,10.00
2019-05-05T14:26:28.353Z,10.00
2019-05-05T14:28:57.508Z,10.30
2019-05-05T14:31:30.178Z,10.20
2019-05-05T14:33:59.637Z,10.00
2019-05-05T14:36:45.611Z,10.00
2019-05-05T14:39:15.207Z,10.20
2019-05-05T14:41:46.209Z,10.40
2019-05-05T14:44:14.250Z,10.50
2019-05-05T14:46:42.085Z,10.60
2019-05-05T14:49:09.877Z,10.80
2019-05-05T14:51:37.659Z,10.50
2019-05-05T14:54:06.162Z,10.40
2019-05-05T14:56:36.491Z,10.40
2019-05-05T14:59:03.790Z,10.30
2019-05-05T15:01:34.223Z,10.50
2019-05-05T15:04:01.290Z,10.70
2019-05-05T15:06:43.989Z,10.90
2019-05-05T15:09:40.486Z,11.00
2019-05-05T15:12:16.282Z,10.90
2019-05-05T15:14:44.085Z,10.80
2019-05-05T15:17:14.141Z,10.60
2019-05-05T15:19:55.044Z,10.70
2019-05-05T15:22:19.584Z,10.80
2019-05-05T15:24:53.587Z,10.90
2019-05-05T15:27:21.009Z,10.80
2019-05-05T15:29:51.174Z,10.90
2019-05-05T15:32:20.884Z,11.10
2019-05-05T15:34:48.952Z,11.20
2019-05-05T15:37:17.344Z,11.40
2019-05-05T15:39:45.278Z,11.60
2019-05-05T15:42:12.966Z,11.60
2019-05-05T15:44:41.309Z,11.60
2019-05-05T15:47:11.159Z,11.90
2019-05-05T15:49:40.799Z,12.20
2019-05-05T15:52:08.729Z,12.30
2019-05-05T15:54:36.630Z,12.40
2019-05-05T15:57:07.894Z,12.30
2019-05-05T15:59:34.321Z,12.30
2019-05-05T16:02:04.173Z,12.00
2019-05-05T16:04:37.578Z,11.50
2019-05-05T16:07:07.533Z,11.50
2019-05-05T16:09:37.567Z,11.60
2019-05-05T16:12:05.399Z,11.40
2019-05-05T16:14:35.445Z,11.20
2019-05-05T16:17:10.648Z,11.10
2019-05-05T16:20:00.523Z,11.20
2019-05-05T16:22:36.677Z,11.30
2019-05-05T16:25:20.377Z,11.10
2019-05-05T16:27:50.687Z,11.20
2019-05-05T16:30:19.747Z,11.00
2019-05-05T16:32:47.542Z,11.00
2019-05-05T16:35:15.628Z,10.80
2019-05-05T16:37:43.177Z,10.90
2019-05-05T16:40:16.823Z,11.10
2019-05-05T16:42:44.386Z,11.10
2019-05-05T16:45:16.229Z,10.90
2019-05-05T16:47:44.306Z,10.80
2019-05-05T16:50:13.939Z,10.70
2019-05-05T16:52:50.579Z,10.70
2019-05-05T16:55:34.369Z,10.80
2019-05-05T16:58:04.058Z,10.80
2019-05-05T17:00:34.429Z,10.70
2019-05-05T17:03:04.219Z,10.70
2019-05-05T17:05:34.488Z,10.70
2019-05-05T17:08:04.350Z,10.70
2019-05-05T17:10:34.193Z,10.60
2019-05-05T17:13:19.776Z,10.60
2019-05-05T17:16:19.226Z,10.60
2019-05-05T17:19:04.410Z,10.60
2019-05-05T17:21:57.518Z,10.40
2019-05-05T17:24:28.039Z,10.50
2019-05-05T17:26:56.405Z,10.70
2019-05-05T17:29:24.402Z,10.80
2019-05-05T17:31:54.035Z,10.90
2019-05-05T17:34:22.010Z,11.10
2019-05-05T17:36:56.152Z,11.00
2019-05-05T17:39:25.812Z,11.10
2019-05-05T17:42:16.525Z,11.10
2019-05-05T17:45:15.693Z,11.10
2019-05-05T17:47:51.023Z,10.90
2019-05-05T17:50:37.463Z,10.70
2019-05-05T17:53:10.843Z,10.50
2019-05-05T17:55:40.444Z,10.50
2019-05-05T17:58:08.221Z,10.60
2019-05-05T18:00:43.891Z,10.70
2019-05-05T18:03:12.227Z,10.80
2019-05-05T18:06:05.802Z,10.90
2019-05-05T18:08:58.661Z,10.80
2019-05-05T18:11:50.931Z,10.70
2019-05-05T18:14:24.036Z,10.70
2019-05-05T18:16:54.067Z,10.80
2019-05-05T18:19:21.916Z,10.90
2019-05-05T18:21:49.904Z,10.90
2019-05-05T18:24:18.278Z,10.90
2019-05-05T18:26:46.223Z,11.00
2019-05-05T18:29:14.597Z,11.00
2019-05-05T18:31:42.630Z,11.00
2019-05-05T18:34:10.681Z,11.00
2019-05-05T18:36:38.406Z,10.90
2019-05-05T18:39:07.312Z,10.90
2019-05-05T18:41:40.868Z,10.90
2019-05-05T18:44:17.190Z,10.90
2019-05-05T18:46:47.056Z,10.80
2019-05-05T18:49:30.723Z,10.80
2019-05-05T18:51:59.332Z,10.80
2019-05-05T18:54:27.768Z,10.80
2019-05-05T18:56:55.966Z,10.80
2019-05-05T18:59:25.287Z,10.80
2019-05-05T19:02:19.614Z,10.80
2019-05-05T19:04:57.002Z,10.80
2019-05-05T19:07:37.497Z,10.80
2019-05-05T19:10:09.006Z,10.70
2019-05-05T19:12:39.406Z,10.70
2019-05-05T19:15:08.070Z,10.60
2019-05-05T19:17:36.008Z,10.60
2019-05-05T19:20:28.271Z,10.60
2019-05-05T19:23:02.888Z,10.60
2019-05-05T19:25:35.735Z,10.50
2019-05-05T19:28:19.337Z,10.50
2019-05-05T19:30:49.056Z,10.40
2019-05-05T19:33:16.931Z,10.30
2019-05-05T19:35:48.478Z,10.20
2019-05-05T19:38:21.260Z,10.20
2019-05-05T19:40:49.512Z,10.10
2019-05-05T19:43:19.168Z,10.10
2019-05-05T19:45:52.489Z,10.00
2019-05-05T19:48:20.589Z,9.90
2019-05-05T19:51:00.737Z,9.70
2019-05-05T19:53:35.329Z,9.60
2019-05-05T19:56:04.107Z,9.50
2019-05-05T19:58:36.611Z,9.40
2019-05-05T20:01:32.146Z,9.30
2019-05-05T20:03:48.376Z,9.10
2019-05-05T20:06:25.556Z,9.10
2019-05-05T20:08:58.542Z,8.90
2019-05-05T20:11:26.359Z,8.80
2019-05-05T20:14:06.648Z,8.80
2019-05-05T20:16:37.681Z,8.70
2019-05-05T20:19:09.782Z,8.60
2019-05-05T20:21:40.561Z,8.50
2019-05-05T20:24:16.020Z,8.50
2019-05-05T20:26:43.027Z,8.50
2019-05-05T20:29:14.281Z,8.50
2019-05-05T20:31:43.875Z,8.40
2019-05-05T20:34:30.411Z,8.50
2019-05-05T20:37:16.374Z,8.50
2019-05-05T20:40:04.012Z,8.50
2019-05-05T20:42:38.733Z,8.40
2019-05-05T20:45:09.154Z,8.30
2019-05-05T20:47:48.707Z,8.20
2019-05-05T20:50:18.393Z,8.20
2019-05-05T20:52:47.028Z,8.20
2019-05-05T20:55:15.268Z,8.10
2019-05-05T20:57:44.337Z,8.10
2019-05-05T21:00:15.073Z,8.00
2019-05-05T21:02:43.599Z,8.10
2019-05-05T21:05:11.928Z,8.00
2019-05-05T21:07:40.436Z,7.80
2019-05-05T21:10:08.522Z,7.80
2019-05-05T21:12:42.354Z,7.60
2019-05-05T21:15:13.022Z,7.40
2019-05-05T21:17:41.932Z,7.40
2019-05-05T21:20:11.404Z,7.30
2019-05-05T21:22:57.091Z,7.30
2019-05-05T21:25:33.805Z,7.20
2019-05-05T21:28:06.890Z,7.30
2019-05-05T21:30:41.717Z,7.30
2019-05-05T21:33:23.747Z,7.40
2019-05-05T21:35:55.176Z,7.40
2019-05-05T21:38:24.217Z,7.20
2019-05-05T21:40:52.437Z,7.00
2019-05-05T21:43:22.620Z,7.00
2019-05-05T21:46:16.490Z,7.00
2019-05-05T21:48:44.855Z,7.10
2019-05-05T21:51:34.958Z,6.90
2019-05-05T21:54:26.923Z,6.80
2019-05-05T21:57:30.583Z,6.70
2019-05-05T22:00:30.443Z,6.50
2019-05-05T22:02:59.493Z,6.30
2019-05-05T22:05:35.068Z,6.20
2019-05-05T22:08:11.622Z,6.00
2019-05-05T22:10:42.757Z,5.90
2019-05-05T22:13:44.211Z,5.90
2019-05-05T22:16:15.495Z,5.90
2019-05-05T22:18:50.046Z,5.80
2019-05-05T22:21:35.672Z,5.80
2019-05-05T22:24:21.586Z,5.90
2019-05-05T22:26:54.134Z,5.80
2019-05-05T22:29:24.846Z,5.80
2019-05-05T22:31:53.459Z,5.70
2019-05-05T22:37:43.921Z,5.70
2019-05-05T22:40:36.577Z,5.60
2019-05-05T22:43:11.269Z,5.50
2019-05-05T22:45:39.483Z,5.50
2019-05-05T22:48:08.128Z,5.60
2019-05-05T22:50:38.608Z,5.70
2019-05-05T22:53:07.300Z,5.70
2019-05-05T22:55:38.383Z,5.60
2019-05-05T22:58:06.664Z,5.60
2019-05-05T23:00:34.929Z,5.40
2019-05-05T23:03:13.671Z,5.30
2019-05-05T23:05:49.228Z,5.30
2019-05-05T23:08:34.884Z,5.30
2019-05-05T23:11:08.978Z,5.20
2019-05-05T23:13:45.648Z,5.20
2019-05-05T23:16:27.130Z,5.00
2019-05-05T23:19:03.243Z,5.00
2019-05-05T23:21:56.047Z,4.90
2019-05-05T23:24:34.484Z,4.90
2019-05-05T23:27:06.599Z,4.90
2019-05-05T23:29:37.520Z,4.70
2019-05-05T23:32:06.626Z,4.50
2019-05-05T23:34:37.071Z,4.60
2019-05-05T23:37:08.554Z,4.80
2019-05-05T23:39:38.885Z,4.80
2019-05-05T23:42:15.234Z,4.80
2019-05-05T23:44:50.968Z,4.80
2019-05-05T23:47:37.002Z,4.90
2019-05-05T23:50:04.578Z,4.80
2019-05-05T23:52:38.974Z,4.70
2019-05-05T23:55:34.455Z,4.60
2019-05-05T23:58:03.758Z,4.50
